sensor_id;sensor_type;location;lat;lon;timestamp;P1;durP1;ratioP1;P2;durP2;ratioP2
22764;SDS011;11549;50.852;3.816;2023-03-31T00:01:08;18.63;;;3.40;;
22764;SDS011;11549;50.852;3.816;2023-03-31T00:03:37;18.20;;;3.53;;
22764;SDS011;11549;50.852;3.816;2023-03-31T00:06:11;20.20;;;3.53;;
22764;SDS011;11549;50.852;3.816;2023-03-31T00:08:44;21.13;;;4.20;;
22764;SDS011;11549;50.852;3.816;2023-03-31T00:13:46;16.48;;;2.67;;
22764;SDS011;11549;50.852;3.816;2023-03-31T00:16:16;17.27;;;3.33;;
22764;SDS011;11549;50.852;3.816;2023-03-31T00:18:45;18.95;;;3.08;;
22764;SDS011;11549;50.852;3.816;2023-03-31T00:21:17;16.15;;;3.65;;
22764;SDS011;11549;50.852;3.816;2023-03-31T00:23:56;18.08;;;3.45;;
22764;SDS011;11549;50.852;3.816;2023-03-31T00:26:25;21.70;;;3.67;;
22764;SDS011;11549;50.852;3.816;2023-03-31T00:28:54;19.45;;;3.70;;
22764;SDS011;11549;50.852;3.816;2023-03-31T00:31:24;18.10;;;3.17;;
22764;SDS011;11549;50.852;3.816;2023-03-31T00:33:53;16.25;;;3.20;;
22764;SDS011;11549;50.852;3.816;2023-03-31T00:36:22;18.23;;;2.97;;
22764;SDS011;11549;50.852;3.816;2023-03-31T00:38:54;17.23;;;3.05;;
22764;SDS011;11549;50.852;3.816;2023-03-31T00:41:24;12.90;;;2.53;;
22764;SDS011;11549;50.852;3.816;2023-03-31T00:44:06;20.08;;;3.05;;
22764;SDS011;11549;50.852;3.816;2023-03-31T00:46:41;12.43;;;2.58;;
22764;SDS011;11549;50.852;3.816;2023-03-31T00:49:15;16.10;;;2.70;;
22764;SDS011;11549;50.852;3.816;2023-03-31T00:51:48;15.93;;;2.85;;
22764;SDS011;11549;50.852;3.816;2023-03-31T00:54:19;21.08;;;3.30;;
22764;SDS011;11549;50.852;3.816;2023-03-31T00:56:51;17.08;;;2.78;;
22764;SDS011;11549;50.852;3.816;2023-03-31T00:59:24;18.00;;;3.28;;
22764;SDS011;11549;50.852;3.816;2023-03-31T01:01:58;17.13;;;3.42;;
22764;SDS011;11549;50.852;3.816;2023-03-31T01:04:31;19.38;;;3.08;;
22764;SDS011;11549;50.852;3.816;2023-03-31T01:07:02;16.75;;;3.42;;
22764;SDS011;11549;50.852;3.816;2023-03-31T01:09:37;22.60;;;3.25;;
22764;SDS011;11549;50.852;3.816;2023-03-31T01:12:07;16.83;;;3.45;;
22764;SDS011;11549;50.852;3.816;2023-03-31T01:14:37;18.35;;;3.35;;
22764;SDS011;11549;50.852;3.816;2023-03-31T01:17:06;19.70;;;3.55;;
22764;SDS011;11549;50.852;3.816;2023-03-31T01:19:46;16.35;;;3.28;;
22764;SDS011;11549;50.852;3.816;2023-03-31T01:22:32;19.65;;;3.70;;
22764;SDS011;11549;50.852;3.816;2023-03-31T01:25:41;22.55;;;3.60;;
22764;SDS011;11549;50.852;3.816;2023-03-31T01:28:35;16.80;;;3.08;;
22764;SDS011;11549;50.852;3.816;2023-03-31T01:34:39;16.77;;;3.25;;
22764;SDS011;11549;50.852;3.816;2023-03-31T01:40:41;16.95;;;2.90;;
22764;SDS011;11549;50.852;3.816;2023-03-31T01:43:31;14.85;;;2.55;;
22764;SDS011;11549;50.852;3.816;2023-03-31T01:46:06;18.00;;;3.00;;
22764;SDS011;11549;50.852;3.816;2023-03-31T01:48:43;15.25;;;2.80;;
22764;SDS011;11549;50.852;3.816;2023-03-31T01:51:18;15.27;;;3.22;;
22764;SDS011;11549;50.852;3.816;2023-03-31T01:53:53;15.23;;;3.00;;
22764;SDS011;11549;50.852;3.816;2023-03-31T01:56:29;18.30;;;3.28;;
22764;SDS011;11549;50.852;3.816;2023-03-31T01:59:01;13.82;;;3.10;;
22764;SDS011;11549;50.852;3.816;2023-03-31T02:01:35;16.17;;;3.80;;
22764;SDS011;11549;50.852;3.816;2023-03-31T02:04:10;19.65;;;3.20;;
22764;SDS011;11549;50.852;3.816;2023-03-31T02:06:41;18.80;;;3.28;;
22764;SDS011;11549;50.852;3.816;2023-03-31T02:09:16;15.75;;;3.00;;
22764;SDS011;11549;50.852;3.816;2023-03-31T02:11:50;14.40;;;3.20;;
22764;SDS011;11549;50.852;3.816;2023-03-31T02:14:20;16.27;;;2.70;;
22764;SDS011;11549;50.852;3.816;2023-03-31T02:16:51;14.73;;;3.03;;
22764;SDS011;11549;50.852;3.816;2023-03-31T02:19:24;16.05;;;2.88;;
22764;SDS011;11549;50.852;3.816;2023-03-31T02:21:58;14.00;;;2.83;;
22764;SDS011;11549;50.852;3.816;2023-03-31T02:24:29;16.38;;;2.65;;
22764;SDS011;11549;50.852;3.816;2023-03-31T02:27:02;13.77;;;2.33;;
22764;SDS011;11549;50.852;3.816;2023-03-31T02:29:33;12.75;;;2.35;;
22764;SDS011;11549;50.852;3.816;2023-03-31T02:32:03;11.95;;;2.17;;
22764;SDS011;11549;50.852;3.816;2023-03-31T02:34:39;11.43;;;1.95;;
22764;SDS011;11549;50.852;3.816;2023-03-31T02:37:07;10.20;;;2.50;;
22764;SDS011;11549;50.852;3.816;2023-03-31T02:39:36;10.02;;;2.05;;
22764;SDS011;11549;50.852;3.816;2023-03-31T02:42:10;12.77;;;1.98;;
22764;SDS011;11549;50.852;3.816;2023-03-31T02:44:38;8.93;;;1.85;;
22764;SDS011;11549;50.852;3.816;2023-03-31T02:47:07;7.63;;;1.58;;
22764;SDS011;11549;50.852;3.816;2023-03-31T02:49:39;5.82;;;1.30;;
22764;SDS011;11549;50.852;3.816;2023-03-31T02:52:14;7.05;;;1.40;;
22764;SDS011;11549;50.852;3.816;2023-03-31T02:55:03;5.45;;;0.98;;
22764;SDS011;11549;50.852;3.816;2023-03-31T02:57:57;4.35;;;1.10;;
22764;SDS011;11549;50.852;3.816;2023-03-31T03:00:51;4.70;;;0.80;;
22764;SDS011;11549;50.852;3.816;2023-03-31T03:03:40;3.00;;;0.60;;
22764;SDS011;11549;50.852;3.816;2023-03-31T03:06:19;4.38;;;0.75;;
22764;SDS011;11549;50.852;3.816;2023-03-31T03:09:02;4.40;;;0.70;;
22764;SDS011;11549;50.852;3.816;2023-03-31T03:11:37;3.05;;;0.80;;
22764;SDS011;11549;50.852;3.816;2023-03-31T03:14:11;4.38;;;0.80;;
22764;SDS011;11549;50.852;3.816;2023-03-31T03:16:47;3.75;;;0.90;;
22764;SDS011;11549;50.852;3.816;2023-03-31T03:19:20;4.28;;;0.70;;
22764;SDS011;11549;50.852;3.816;2023-03-31T03:21:50;4.60;;;0.80;;
22764;SDS011;11549;50.852;3.816;2023-03-31T03:24:18;5.65;;;1.30;;
22764;SDS011;11549;50.852;3.816;2023-03-31T03:26:48;4.90;;;1.08;;
22764;SDS011;11549;50.852;3.816;2023-03-31T03:29:19;4.53;;;0.98;;
22764;SDS011;11549;50.852;3.816;2023-03-31T03:31:47;4.18;;;0.77;;
22764;SDS011;11549;50.852;3.816;2023-03-31T03:34:15;3.88;;;0.90;;
22764;SDS011;11549;50.852;3.816;2023-03-31T03:36:45;2.75;;;0.68;;
22764;SDS011;11549;50.852;3.816;2023-03-31T03:39:14;4.57;;;0.75;;
22764;SDS011;11549;50.852;3.816;2023-03-31T03:41:42;4.10;;;0.85;;
22764;SDS011;11549;50.852;3.816;2023-03-31T03:44:10;4.22;;;0.80;;
22764;SDS011;11549;50.852;3.816;2023-03-31T03:46:40;4.30;;;0.75;;
22764;SDS011;11549;50.852;3.816;2023-03-31T03:49:08;3.85;;;0.57;;
22764;SDS011;11549;50.852;3.816;2023-03-31T03:51:36;4.55;;;0.70;;
22764;SDS011;11549;50.852;3.816;2023-03-31T03:54:05;2.88;;;0.60;;
22764;SDS011;11549;50.852;3.816;2023-03-31T03:56:34;5.32;;;0.77;;
22764;SDS011;11549;50.852;3.816;2023-03-31T03:59:02;3.15;;;0.75;;
22764;SDS011;11549;50.852;3.816;2023-03-31T04:01:30;5.60;;;0.80;;
22764;SDS011;11549;50.852;3.816;2023-03-31T04:04:00;5.07;;;0.80;;
22764;SDS011;11549;50.852;3.816;2023-03-31T04:06:29;3.05;;;0.68;;
22764;SDS011;11549;50.852;3.816;2023-03-31T04:08:57;5.70;;;1.00;;
22764;SDS011;11549;50.852;3.816;2023-03-31T04:11:25;4.97;;;0.80;;
22764;SDS011;11549;50.852;3.816;2023-03-31T04:13:54;3.67;;;0.60;;
22764;SDS011;11549;50.852;3.816;2023-03-31T04:16:22;5.53;;;0.80;;
22764;SDS011;11549;50.852;3.816;2023-03-31T04:18:51;7.00;;;1.08;;
22764;SDS011;11549;50.852;3.816;2023-03-31T04:21:23;6.07;;;1.02;;
22764;SDS011;11549;50.852;3.816;2023-03-31T04:23:52;6.97;;;1.33;;
22764;SDS011;11549;50.852;3.816;2023-03-31T04:26:27;5.68;;;1.00;;
22764;SDS011;11549;50.852;3.816;2023-03-31T04:29:04;9.27;;;1.40;;
22764;SDS011;11549;50.852;3.816;2023-03-31T04:31:33;8.10;;;1.50;;
22764;SDS011;11549;50.852;3.816;2023-03-31T04:34:04;7.28;;;1.73;;
22764;SDS011;11549;50.852;3.816;2023-03-31T04:36:40;10.45;;;2.15;;
22764;SDS011;11549;50.852;3.816;2023-03-31T04:39:13;8.85;;;1.98;;
22764;SDS011;11549;50.852;3.816;2023-03-31T04:41:43;10.20;;;2.05;;
22764;SDS011;11549;50.852;3.816;2023-03-31T04:44:12;10.50;;;2.50;;
22764;SDS011;11549;50.852;3.816;2023-03-31T04:46:40;10.13;;;2.40;;
22764;SDS011;11549;50.852;3.816;2023-03-31T04:49:09;13.13;;;2.60;;
22764;SDS011;11549;50.852;3.816;2023-03-31T04:51:37;15.32;;;2.90;;
22764;SDS011;11549;50.852;3.816;2023-03-31T04:54:06;14.07;;;2.83;;
22764;SDS011;11549;50.852;3.816;2023-03-31T04:56:35;11.43;;;2.53;;
22764;SDS011;11549;50.852;3.816;2023-03-31T04:59:03;16.98;;;2.85;;
22764;SDS011;11549;50.852;3.816;2023-03-31T05:01:33;13.80;;;2.72;;
22764;SDS011;11549;50.852;3.816;2023-03-31T05:04:03;13.65;;;3.45;;
22764;SDS011;11549;50.852;3.816;2023-03-31T05:06:32;15.98;;;2.95;;
22764;SDS011;11549;50.852;3.816;2023-03-31T05:09:00;18.52;;;3.55;;
22764;SDS011;11549;50.852;3.816;2023-03-31T05:11:30;15.98;;;3.35;;
22764;SDS011;11549;50.852;3.816;2023-03-31T05:13:58;15.25;;;3.65;;
22764;SDS011;11549;50.852;3.816;2023-03-31T05:16:26;17.13;;;3.20;;
22764;SDS011;11549;50.852;3.816;2023-03-31T05:18:55;15.93;;;3.38;;
22764;SDS011;11549;50.852;3.816;2023-03-31T05:21:23;18.58;;;3.65;;
22764;SDS011;11549;50.852;3.816;2023-03-31T05:23:52;15.23;;;3.63;;
22764;SDS011;11549;50.852;3.816;2023-03-31T05:26:20;17.02;;;3.40;;
22764;SDS011;11549;50.852;3.816;2023-03-31T05:28:52;17.65;;;3.50;;
22764;SDS011;11549;50.852;3.816;2023-03-31T05:31:20;20.13;;;3.63;;
22764;SDS011;11549;50.852;3.816;2023-03-31T05:33:49;19.42;;;4.28;;
22764;SDS011;11549;50.852;3.816;2023-03-31T05:36:19;17.67;;;4.07;;
22764;SDS011;11549;50.852;3.816;2023-03-31T05:38:49;16.67;;;3.47;;
22764;SDS011;11549;50.852;3.816;2023-03-31T05:41:17;21.25;;;4.15;;
22764;SDS011;11549;50.852;3.816;2023-03-31T05:43:46;17.33;;;3.45;;
22764;SDS011;11549;50.852;3.816;2023-03-31T05:46:16;15.00;;;3.28;;
22764;SDS011;11549;50.852;3.816;2023-03-31T05:48:44;17.92;;;3.67;;
22764;SDS011;11549;50.852;3.816;2023-03-31T05:51:13;20.13;;;3.85;;
22764;SDS011;11549;50.852;3.816;2023-03-31T05:53:41;17.67;;;3.33;;
22764;SDS011;11549;50.852;3.816;2023-03-31T05:56:09;18.63;;;3.97;;
22764;SDS011;11549;50.852;3.816;2023-03-31T05:58:38;20.75;;;3.70;;
22764;SDS011;11549;50.852;3.816;2023-03-31T06:01:08;15.60;;;3.50;;
22764;SDS011;11549;50.852;3.816;2023-03-31T06:03:41;17.42;;;4.25;;
22764;SDS011;11549;50.852;3.816;2023-03-31T06:06:10;16.58;;;3.45;;
22764;SDS011;11549;50.852;3.816;2023-03-31T06:08:40;17.80;;;4.03;;
22764;SDS011;11549;50.852;3.816;2023-03-31T06:11:10;16.15;;;4.43;;
22764;SDS011;11549;50.852;3.816;2023-03-31T06:13:40;18.45;;;4.95;;
22764;SDS011;11549;50.852;3.816;2023-03-31T06:16:09;20.10;;;4.18;;
22764;SDS011;11549;50.852;3.816;2023-03-31T06:18:38;16.88;;;4.30;;
22764;SDS011;11549;50.852;3.816;2023-03-31T06:21:08;18.70;;;4.32;;
22764;SDS011;11549;50.852;3.816;2023-03-31T06:23:39;19.23;;;3.70;;
22764;SDS011;11549;50.852;3.816;2023-03-31T06:26:10;21.77;;;4.13;;
22764;SDS011;11549;50.852;3.816;2023-03-31T06:28:42;14.87;;;3.77;;
22764;SDS011;11549;50.852;3.816;2023-03-31T06:31:12;19.02;;;3.63;;
22764;SDS011;11549;50.852;3.816;2023-03-31T06:33:42;15.50;;;3.78;;
22764;SDS011;11549;50.852;3.816;2023-03-31T06:36:13;21.45;;;4.18;;
22764;SDS011;11549;50.852;3.816;2023-03-31T06:38:43;19.13;;;4.17;;
22764;SDS011;11549;50.852;3.816;2023-03-31T06:41:13;17.15;;;4.20;;
22764;SDS011;11549;50.852;3.816;2023-03-31T06:43:42;23.27;;;4.68;;
22764;SDS011;11549;50.852;3.816;2023-03-31T06:46:12;20.48;;;4.40;;
22764;SDS011;11549;50.852;3.816;2023-03-31T06:48:41;17.80;;;4.00;;
22764;SDS011;11549;50.852;3.816;2023-03-31T06:51:09;22.38;;;4.32;;
22764;SDS011;11549;50.852;3.816;2023-03-31T06:53:39;21.58;;;4.30;;
22764;SDS011;11549;50.852;3.816;2023-03-31T06:56:08;20.55;;;4.82;;
22764;SDS011;11549;50.852;3.816;2023-03-31T06:58:36;21.90;;;4.10;;
22764;SDS011;11549;50.852;3.816;2023-03-31T07:01:05;29.10;;;5.20;;
22764;SDS011;11549;50.852;3.816;2023-03-31T07:03:33;21.70;;;4.32;;
22764;SDS011;11549;50.852;3.816;2023-03-31T07:06:02;21.70;;;4.35;;
22764;SDS011;11549;50.852;3.816;2023-03-31T07:08:31;25.30;;;4.13;;
22764;SDS011;11549;50.852;3.816;2023-03-31T07:11:00;20.67;;;3.95;;
22764;SDS011;11549;50.852;3.816;2023-03-31T07:13:29;24.02;;;4.97;;
22764;SDS011;11549;50.852;3.816;2023-03-31T07:15:58;26.67;;;4.93;;
22764;SDS011;11549;50.852;3.816;2023-03-31T07:18:27;24.42;;;4.15;;
22764;SDS011;11549;50.852;3.816;2023-03-31T07:23:32;20.65;;;4.47;;
22764;SDS011;11549;50.852;3.816;2023-03-31T07:26:02;24.40;;;4.32;;
22764;SDS011;11549;50.852;3.816;2023-03-31T07:28:31;24.63;;;4.32;;
22764;SDS011;11549;50.852;3.816;2023-03-31T07:31:00;26.73;;;4.70;;
22764;SDS011;11549;50.852;3.816;2023-03-31T07:33:29;24.38;;;4.65;;
22764;SDS011;11549;50.852;3.816;2023-03-31T07:35:57;21.52;;;3.88;;
22764;SDS011;11549;50.852;3.816;2023-03-31T07:38:38;23.90;;;4.45;;
22764;SDS011;11549;50.852;3.816;2023-03-31T07:41:10;28.63;;;4.65;;
22764;SDS011;11549;50.852;3.816;2023-03-31T07:43:39;18.95;;;4.15;;
22764;SDS011;11549;50.852;3.816;2023-03-31T07:46:13;24.52;;;4.80;;
22764;SDS011;11549;50.852;3.816;2023-03-31T07:48:43;19.92;;;4.53;;
22764;SDS011;11549;50.852;3.816;2023-03-31T07:51:13;22.58;;;4.13;;
22764;SDS011;11549;50.852;3.816;2023-03-31T07:53:42;23.35;;;4.20;;
22764;SDS011;11549;50.852;3.816;2023-03-31T07:56:12;25.35;;;4.53;;
22764;SDS011;11549;50.852;3.816;2023-03-31T07:58:42;21.15;;;3.90;;
22764;SDS011;11549;50.852;3.816;2023-03-31T08:01:12;25.38;;;3.85;;
22764;SDS011;11549;50.852;3.816;2023-03-31T08:03:43;19.52;;;4.05;;
22764;SDS011;11549;50.852;3.816;2023-03-31T08:06:16;28.13;;;4.20;;
22764;SDS011;11549;50.852;3.816;2023-03-31T08:08:45;24.63;;;3.90;;
22764;SDS011;11549;50.852;3.816;2023-03-31T08:11:15;23.02;;;3.88;;
22764;SDS011;11549;50.852;3.816;2023-03-31T08:13:44;20.52;;;3.72;;
22764;SDS011;11549;50.852;3.816;2023-03-31T08:16:13;18.83;;;4.00;;
22764;SDS011;11549;50.852;3.816;2023-03-31T08:18:42;23.15;;;4.10;;
22764;SDS011;11549;50.852;3.816;2023-03-31T08:21:10;24.70;;;3.92;;
22764;SDS011;11549;50.852;3.816;2023-03-31T08:23:38;20.30;;;4.43;;
22764;SDS011;11549;50.852;3.816;2023-03-31T08:26:08;18.98;;;4.13;;
22764;SDS011;11549;50.852;3.816;2023-03-31T08:28:41;17.90;;;4.75;;
22764;SDS011;11549;50.852;3.816;2023-03-31T08:31:09;20.10;;;3.63;;
22764;SDS011;11549;50.852;3.816;2023-03-31T08:33:41;22.15;;;4.53;;
22764;SDS011;11549;50.852;3.816;2023-03-31T08:36:10;20.50;;;3.53;;
22764;SDS011;11549;50.852;3.816;2023-03-31T08:38:40;18.83;;;3.85;;
22764;SDS011;11549;50.852;3.816;2023-03-31T08:41:14;21.92;;;4.00;;
22764;SDS011;11549;50.852;3.816;2023-03-31T08:43:55;18.50;;;3.90;;
22764;SDS011;11549;50.852;3.816;2023-03-31T08:46:26;19.60;;;3.75;;
22764;SDS011;11549;50.852;3.816;2023-03-31T08:48:57;20.58;;;3.97;;
22764;SDS011;11549;50.852;3.816;2023-03-31T08:51:27;17.15;;;3.60;;
22764;SDS011;11549;50.852;3.816;2023-03-31T08:53:58;21.20;;;3.97;;
22764;SDS011;11549;50.852;3.816;2023-03-31T08:56:30;21.92;;;4.32;;
22764;SDS011;11549;50.852;3.816;2023-03-31T08:59:05;20.88;;;4.32;;
22764;SDS011;11549;50.852;3.816;2023-03-31T09:01:36;23.52;;;4.93;;
22764;SDS011;11549;50.852;3.816;2023-03-31T09:04:24;25.13;;;5.07;;
22764;SDS011;11549;50.852;3.816;2023-03-31T09:07:11;22.70;;;4.75;;
22764;SDS011;11549;50.852;3.816;2023-03-31T09:09:48;23.15;;;4.50;;
22764;SDS011;11549;50.852;3.816;2023-03-31T09:12:24;23.63;;;4.90;;
22764;SDS011;11549;50.852;3.816;2023-03-31T09:15:03;31.48;;;5.25;;
22764;SDS011;11549;50.852;3.816;2023-03-31T09:17:41;20.80;;;4.72;;
22764;SDS011;11549;50.852;3.816;2023-03-31T09:20:14;28.10;;;5.22;;
22764;SDS011;11549;50.852;3.816;2023-03-31T09:22:47;27.63;;;5.32;;
22764;SDS011;11549;50.852;3.816;2023-03-31T09:25:22;24.33;;;5.20;;
22764;SDS011;11549;50.852;3.816;2023-03-31T09:27:54;26.90;;;5.00;;
22764;SDS011;11549;50.852;3.816;2023-03-31T09:30:26;20.80;;;4.82;;
22764;SDS011;11549;50.852;3.816;2023-03-31T09:32:57;25.80;;;4.82;;
22764;SDS011;11549;50.852;3.816;2023-03-31T09:35:37;25.77;;;5.22;;
22764;SDS011;11549;50.852;3.816;2023-03-31T09:38:07;26.10;;;4.75;;
22764;SDS011;11549;50.852;3.816;2023-03-31T09:40:36;27.38;;;4.40;;
22764;SDS011;11549;50.852;3.816;2023-03-31T09:43:06;28.90;;;5.15;;
22764;SDS011;11549;50.852;3.816;2023-03-31T09:45:43;22.95;;;4.35;;
22764;SDS011;11549;50.852;3.816;2023-03-31T09:48:33;23.23;;;4.68;;
22764;SDS011;11549;50.852;3.816;2023-03-31T09:51:02;26.10;;;4.78;;
22764;SDS011;11549;50.852;3.816;2023-03-31T09:53:34;28.88;;;4.25;;
22764;SDS011;11549;50.852;3.816;2023-03-31T09:56:07;20.70;;;4.13;;
22764;SDS011;11549;50.852;3.816;2023-03-31T09:58:39;27.98;;;4.70;;
22764;SDS011;11549;50.852;3.816;2023-03-31T10:01:10;21.13;;;4.43;;
22764;SDS011;11549;50.852;3.816;2023-03-31T10:03:43;16.80;;;3.92;;
22764;SDS011;11549;50.852;3.816;2023-03-31T10:06:15;23.25;;;4.57;;
22764;SDS011;11549;50.852;3.816;2023-03-31T10:08:46;20.10;;;4.38;;
22764;SDS011;11549;50.852;3.816;2023-03-31T10:11:18;25.15;;;4.70;;
22764;SDS011;11549;50.852;3.816;2023-03-31T10:13:48;21.05;;;4.15;;
22764;SDS011;11549;50.852;3.816;2023-03-31T10:16:29;28.38;;;5.45;;
22764;SDS011;11549;50.852;3.816;2023-03-31T10:19:11;19.65;;;4.10;;
22764;SDS011;11549;50.852;3.816;2023-03-31T10:21:45;20.17;;;4.30;;
22764;SDS011;11549;50.852;3.816;2023-03-31T10:24:17;25.67;;;4.43;;
22764;SDS011;11549;50.852;3.816;2023-03-31T10:26:46;20.25;;;4.30;;
22764;SDS011;11549;50.852;3.816;2023-03-31T10:29:17;20.27;;;4.28;;
22764;SDS011;11549;50.852;3.816;2023-03-31T10:31:52;20.02;;;3.80;;
22764;SDS011;11549;50.852;3.816;2023-03-31T10:34:21;23.55;;;4.03;;
22764;SDS011;11549;50.852;3.816;2023-03-31T10:36:51;19.25;;;3.95;;
22764;SDS011;11549;50.852;3.816;2023-03-31T10:39:19;16.38;;;3.53;;
22764;SDS011;11549;50.852;3.816;2023-03-31T10:41:53;15.65;;;3.25;;
22764;SDS011;11549;50.852;3.816;2023-03-31T10:44:30;21.02;;;4.00;;
22764;SDS011;11549;50.852;3.816;2023-03-31T10:47:04;19.58;;;3.50;;
22764;SDS011;11549;50.852;3.816;2023-03-31T10:49:43;17.13;;;3.70;;
22764;SDS011;11549;50.852;3.816;2023-03-31T10:52:15;19.10;;;3.45;;
22764;SDS011;11549;50.852;3.816;2023-03-31T10:54:46;18.45;;;3.83;;
22764;SDS011;11549;50.852;3.816;2023-03-31T10:57:16;17.60;;;2.97;;
22764;SDS011;11549;50.852;3.816;2023-03-31T11:02:34;20.08;;;3.40;;
22764;SDS011;11549;50.852;3.816;2023-03-31T11:05:16;19.25;;;4.00;;
22764;SDS011;11549;50.852;3.816;2023-03-31T11:07:53;19.60;;;3.42;;
22764;SDS011;11549;50.852;3.816;2023-03-31T11:10:35;15.65;;;2.90;;
22764;SDS011;11549;50.852;3.816;2023-03-31T11:13:19;19.02;;;3.63;;
22764;SDS011;11549;50.852;3.816;2023-03-31T11:15:54;19.63;;;3.85;;
22764;SDS011;11549;50.852;3.816;2023-03-31T11:18:34;15.23;;;2.83;;
22764;SDS011;11549;50.852;3.816;2023-03-31T11:21:12;14.57;;;2.97;;
22764;SDS011;11549;50.852;3.816;2023-03-31T11:23:49;16.08;;;3.22;;
22764;SDS011;11549;50.852;3.816;2023-03-31T11:26:25;20.50;;;3.63;;
22764;SDS011;11549;50.852;3.816;2023-03-31T11:29:03;16.48;;;3.92;;
22764;SDS011;11549;50.852;3.816;2023-03-31T11:31:43;16.60;;;3.28;;
22764;SDS011;11549;50.852;3.816;2023-03-31T11:34:25;13.45;;;3.08;;
22764;SDS011;11549;50.852;3.816;2023-03-31T11:37:11;14.63;;;2.90;;
22764;SDS011;11549;50.852;3.816;2023-03-31T11:39:54;17.70;;;3.30;;
22764;SDS011;11549;50.852;3.816;2023-03-31T11:42:32;16.00;;;2.40;;
22764;SDS011;11549;50.852;3.816;2023-03-31T11:45:10;14.50;;;2.75;;
22764;SDS011;11549;50.852;3.816;2023-03-31T11:47:42;13.20;;;2.47;;
22764;SDS011;11549;50.852;3.816;2023-03-31T11:50:17;14.20;;;2.53;;
22764;SDS011;11549;50.852;3.816;2023-03-31T11:52:49;14.02;;;2.70;;
22764;SDS011;11549;50.852;3.816;2023-03-31T11:55:24;14.73;;;2.58;;
22764;SDS011;11549;50.852;3.816;2023-03-31T11:57:57;9.82;;;2.30;;
22764;SDS011;11549;50.852;3.816;2023-03-31T12:00:31;12.93;;;2.42;;
22764;SDS011;11549;50.852;3.816;2023-03-31T12:03:09;12.20;;;2.22;;
22764;SDS011;11549;50.852;3.816;2023-03-31T12:05:42;7.43;;;1.40;;
22764;SDS011;11549;50.852;3.816;2023-03-31T12:08:13;9.57;;;1.98;;
22764;SDS011;11549;50.852;3.816;2023-03-31T12:10:45;7.00;;;1.42;;
22764;SDS011;11549;50.852;3.816;2023-03-31T12:16:12;9.32;;;1.85;;
22764;SDS011;11549;50.852;3.816;2023-03-31T12:18:46;9.18;;;2.15;;
22764;SDS011;11549;50.852;3.816;2023-03-31T12:21:25;10.27;;;2.60;;
22764;SDS011;11549;50.852;3.816;2023-03-31T12:23:55;12.43;;;2.70;;
22764;SDS011;11549;50.852;3.816;2023-03-31T12:26:28;11.38;;;2.60;;
22764;SDS011;11549;50.852;3.816;2023-03-31T12:29:05;10.40;;;2.33;;
22764;SDS011;11549;50.852;3.816;2023-03-31T12:31:42;11.52;;;2.50;;
22764;SDS011;11549;50.852;3.816;2023-03-31T12:34:12;8.88;;;1.85;;
22764;SDS011;11549;50.852;3.816;2023-03-31T12:36:48;10.45;;;1.77;;
22764;SDS011;11549;50.852;3.816;2023-03-31T12:39:34;8.43;;;1.95;;
22764;SDS011;11549;50.852;3.816;2023-03-31T12:45:17;7.10;;;1.42;;
22764;SDS011;11549;50.852;3.816;2023-03-31T12:47:55;6.20;;;1.40;;
22764;SDS011;11549;50.852;3.816;2023-03-31T12:50:52;6.38;;;1.40;;
22764;SDS011;11549;50.852;3.816;2023-03-31T12:53:32;6.20;;;0.90;;
22764;SDS011;11549;50.852;3.816;2023-03-31T12:56:10;3.92;;;0.90;;
22764;SDS011;11549;50.852;3.816;2023-03-31T12:58:42;7.63;;;1.27;;
22764;SDS011;11549;50.852;3.816;2023-03-31T13:03:49;4.53;;;0.85;;
22764;SDS011;11549;50.852;3.816;2023-03-31T13:12:21;4.30;;;1.00;;
22764;SDS011;11549;50.852;3.816;2023-03-31T13:14:53;2.55;;;0.63;;
22764;SDS011;11549;50.852;3.816;2023-03-31T13:17:56;3.50;;;0.57;;
22764;SDS011;11549;50.852;3.816;2023-03-31T13:20:29;4.97;;;0.82;;
22764;SDS011;11549;50.852;3.816;2023-03-31T13:23:02;4.95;;;0.90;;
22764;SDS011;11549;50.852;3.816;2023-03-31T13:31:09;3.60;;;0.80;;
22764;SDS011;11549;50.852;3.816;2023-03-31T13:33:49;4.68;;;0.75;;
22764;SDS011;11549;50.852;3.816;2023-03-31T13:39:33;2.88;;;0.65;;
22764;SDS011;11549;50.852;3.816;2023-03-31T13:45:25;4.20;;;0.93;;
22764;SDS011;11549;50.852;3.816;2023-03-31T13:48:19;3.72;;;0.60;;
22764;SDS011;11549;50.852;3.816;2023-03-31T13:51:09;5.13;;;1.02;;
22764;SDS011;11549;50.852;3.816;2023-03-31T14:00:01;5.00;;;0.90;;
22764;SDS011;11549;50.852;3.816;2023-03-31T14:02:57;2.30;;;0.73;;
22764;SDS011;11549;50.852;3.816;2023-03-31T14:05:41;5.82;;;1.45;;
22764;SDS011;11549;50.852;3.816;2023-03-31T14:08:13;4.60;;;0.75;;
22764;SDS011;11549;50.852;3.816;2023-03-31T14:10:46;3.22;;;0.88;;
22764;SDS011;11549;50.852;3.816;2023-03-31T14:13:15;5.97;;;1.38;;
22764;SDS011;11549;50.852;3.816;2023-03-31T14:15:47;5.53;;;1.30;;
22764;SDS011;11549;50.852;3.816;2023-03-31T14:18:20;5.72;;;1.35;;
22764;SDS011;11549;50.852;3.816;2023-03-31T14:20:54;4.10;;;1.20;;
22764;SDS011;11549;50.852;3.816;2023-03-31T14:23:35;7.20;;;2.05;;
22764;SDS011;11549;50.852;3.816;2023-03-31T14:26:12;9.35;;;2.72;;
22764;SDS011;11549;50.852;3.816;2023-03-31T14:28:53;6.60;;;1.92;;
22764;SDS011;11549;50.852;3.816;2023-03-31T14:31:37;7.43;;;1.25;;
22764;SDS011;11549;50.852;3.816;2023-03-31T14:34:14;4.97;;;1.10;;
22764;SDS011;11549;50.852;3.816;2023-03-31T14:36:51;5.97;;;1.20;;
22764;SDS011;11549;50.852;3.816;2023-03-31T14:39:25;5.45;;;1.30;;
22764;SDS011;11549;50.852;3.816;2023-03-31T14:41:58;2.92;;;0.80;;
22764;SDS011;11549;50.852;3.816;2023-03-31T14:44:29;4.95;;;1.00;;
22764;SDS011;11549;50.852;3.816;2023-03-31T14:47:01;3.38;;;0.80;;
22764;SDS011;11549;50.852;3.816;2023-03-31T14:49:33;3.88;;;0.80;;
22764;SDS011;11549;50.852;3.816;2023-03-31T14:52:12;4.43;;;0.90;;
22764;SDS011;11549;50.852;3.816;2023-03-31T14:54:43;4.32;;;0.80;;
22764;SDS011;11549;50.852;3.816;2023-03-31T14:57:15;6.57;;;1.27;;
22764;SDS011;11549;50.852;3.816;2023-03-31T14:59:46;11.07;;;1.88;;
22764;SDS011;11549;50.852;3.816;2023-03-31T15:02:20;10.98;;;2.00;;
22764;SDS011;11549;50.852;3.816;2023-03-31T15:04:56;11.00;;;1.90;;
22764;SDS011;11549;50.852;3.816;2023-03-31T15:07:26;11.80;;;1.88;;
22764;SDS011;11549;50.852;3.816;2023-03-31T15:09:54;10.10;;;1.70;;
22764;SDS011;11549;50.852;3.816;2023-03-31T15:12:22;13.82;;;2.83;;
22764;SDS011;11549;50.852;3.816;2023-03-31T15:14:53;11.80;;;1.88;;
22764;SDS011;11549;50.852;3.816;2023-03-31T15:17:26;11.27;;;1.75;;
22764;SDS011;11549;50.852;3.816;2023-03-31T15:19:58;13.13;;;2.70;;
22764;SDS011;11549;50.852;3.816;2023-03-31T15:22:30;12.05;;;1.70;;
22764;SDS011;11549;50.852;3.816;2023-03-31T15:24:59;17.13;;;2.42;;
22764;SDS011;11549;50.852;3.816;2023-03-31T15:27:30;12.05;;;2.47;;
22764;SDS011;11549;50.852;3.816;2023-03-31T15:30:04;13.50;;;2.20;;
22764;SDS011;11549;50.852;3.816;2023-03-31T15:32:37;14.05;;;1.80;;
22764;SDS011;11549;50.852;3.816;2023-03-31T15:35:10;11.80;;;2.30;;
22764;SDS011;11549;50.852;3.816;2023-03-31T15:37:48;12.23;;;2.42;;
22764;SDS011;11549;50.852;3.816;2023-03-31T15:40:20;11.25;;;1.80;;
22764;SDS011;11549;50.852;3.816;2023-03-31T15:42:52;9.38;;;1.42;;
22764;SDS011;11549;50.852;3.816;2023-03-31T15:45:49;8.55;;;2.63;;
22764;SDS011;11549;50.852;3.816;2023-03-31T15:48:24;8.73;;;1.65;;
22764;SDS011;11549;50.852;3.816;2023-03-31T15:50:59;11.15;;;1.70;;
22764;SDS011;11549;50.852;3.816;2023-03-31T15:53:29;7.40;;;1.65;;
22764;SDS011;11549;50.852;3.816;2023-03-31T15:56:02;10.68;;;1.92;;
22764;SDS011;11549;50.852;3.816;2023-03-31T15:58:45;10.32;;;2.30;;
22764;SDS011;11549;50.852;3.816;2023-03-31T16:01:21;12.27;;;2.20;;